Pagina principale
METAR-TAF:

METAR-TAF

Aeroporti :

Aeroporto Internazionale di Tuzla

Tuzla, Bosnia-Erzegovina

latitudine: 44-33N, longitudine: 018-42E, altezza: 306 m

Osservazione

Il bollettino è stato emesso 46 minuti fa, alle 03:00 UTC
Vento 1 kt da direzioni variabili
Temperature 1°C
Umidità 93%
Pressione 1023 hPa
Visibilità: 4000 m
foschia

METAR: LQTZ 270300Z VRB01KT 4000 BR NSC 01/M00 Q1023

Ora: 04:46 (03:46 UTC)

Previsione

Il bollettino è stato emesso 4 ore e 46 minuti fa, alle 23:00 UTC
Previsione valida dal 27 alle 00 UTC al 27 alle 24 UTC
Vento 2 kt da direzioni variabili
Visibilità 10 km o più
nessuna nube inferiore a 1500 m e nessun cumulonembo
Probabilità 40% :
Temporaneamente
dal 27 alle 02 UTC al 27 alle 07 UTC
Visibilità: 3000 m
foschia
Temporaneamente
dal 27 alle 06 UTC al 27 alle 17 UTC
Vento 10 kt da nord

TAF: LQTZ 262300Z 2700/2724 VRB02KT CAVOK TX11/2714Z TN01/2706Z PROB40 TEMPO 2702/2707 3000 BR TEMPO 2706/2717 35010KT

Osservazioni e previsioni meteorologiche di più di 4000 aeroporti (messaggi METAR e TAF).

Le stazioni disponibili sono rappresentate dai dischi gialli e rossi sulla carta.

Puntare il mouse per vedere il nome della stazione.

Clicca sopra per visualizzare le osservazioni e previsioni meteorologiche.

Per cambiare la mappa : fare clic sui pulsanti verdi con una croce nera per ingrandire, il pulsante verde con un trattino per diminuire, o sulla freccia verde per le mappe adiacenti.


METAR-TAF: